Terminal Aerodrome Forecast
Issued by NWS Charleston, WV

Current Version | Previous Version | Graphics & Text | Print | Product List | Glossary On
Versions: 1 2 3 4 5 6 7 8 9 10 11 12 13 14 15 16 17 18 19 20 21 22 23 24
653
FTUS41 KRLX 231503 AAA
TAFEKN
TAF AMD
KEKN 231503Z 2315/2412 05003KT P6SM FEW250
     FM240500 00000KT 2SM BR SCT001
     FM240600 00000KT 1SM BR BKN001
     FM240700 00000KT 1/4SM FG VV001=

USA.gov is the U.S. government's official web portal to all federal, state and local government web resources and services.